Main page
METAR-TAF:

METAR-TAF

Airports :

Waterford Airport

Waterford, Ireland

latitude: 52-11-14N, longitude: 7-05-13W, elevation: 36 m

Current weather observation

The report was made 1 hour and 40 minutes ago, at 20:30 UTC
Wind 6 kt from the Northwest
Temperature 3°C
Humidity 87%
Pressure 1001 hPa
Visibility 10 km or more
no clouds below 1500 m and no cumulonimbus

METAR: EIWF 222030Z 31006KT CAVOK 03/01 Q1001

Time: 22:10 (22:10 UTC)

Forecast

The report was made 2 hours and 10 minutes ago, at 20:00 UTC
Forecast valid from 22 at 21 UTC to 23 at 06 UTC
Wind 5 kt from the West/Northwest
Visibility 10 km or more
Few clouds at a height of 2500 ft

TAF: EIWF 222000Z 2221/2306 29005KT 9999 FEW025

Weather observations and forecasts of more than 4000 airports (METAR and TAF reports).

The available stations are represented by yellow and red dots on the map.

Hover mouse over dot to see the name of the station.

Then click to see weather observations and forecasts.

To change the map : click on the green buttons with a black cross to zoom in, on the green button with a dash to zoom out, or on the green arrows for adjacent maps.


METAR-TAF: